• Join FlightAware (Why Join?)
  • Login
  • US Flag 
03:36AM EDT


 

Airport Tracker/Info


-or-


 

Live Flight TrackerFlight Track Log ✈ TAM3042 ✈ 25-Jul-2013 ✈ SBNF / NVT - SBSP / CGH

Flight Track Log - Related Links

Times and Time Zones

All times are in EDT time to prevent confusion due to time zone crossing. See the TAM3042 flight status page for this flight to view local times or setup timezone preferences in your user account.

Time Position Orientation Groundspeed Altitude Reporting Facility
EDT Latitude Longitude Course Direction KTS MPH feet Rate Location/Type
07:59PM -26.7700 -48.6440 34° Northeast 285 328 9,300  Level FlightAware
07:59PM -26.7200 -48.6050 35° Northeast 307 353 11,600 3,300 Climbing FlightAware
08:00PM -26.6750 -48.5710 34° Northeast 311 358 13,800 3,300 Climbing FlightAware
08:01PM -26.6180 -48.5280 34° Northeast 314 361 16,300 3,000 Climbing FlightAware
08:02PM -26.5640 -48.4870 34° Northeast 324 373 18,300 2,460 Climbing FlightAware
08:02PM -26.5130 -48.4480 34° Northeast 339 390 19,800 2,100 Climbing FlightAware
08:03PM -26.4600 -48.4080 34° Northeast 357 411 21,100 1,860 Climbing FlightAware
08:04PM -26.3980 -48.3610 34° Northeast 374 430 22,500 1,440 Climbing FlightAware
08:04PM -26.3380 -48.3150 34° Northeast 402 463 23,200 1,260 Climbing FlightAware
08:05PM -26.2730 -48.2670 34° Northeast 419 482 24,200 1,860 Climbing FlightAware
08:06PM -26.2000 -48.2120 34° Northeast 426 490 25,900 1,920 Climbing FlightAware
08:06PM -26.1330 -48.1610 34° Northeast 426 490 27,000 720 Climbing FlightAware
08:07PM -26.0540 -48.1020 34° Northeast 478 550 27,000  Level FlightAware
08:08PM -25.9800 -48.0460 34° Northeast 488 562 27,000  Level FlightAware
08:09PM -25.8980 -47.9700 40° Northeast 519 597 27,000  Level FlightAware
08:09PM -25.8260 -47.8950 43° Northeast 517 595 27,000  Level FlightAware
08:10PM -25.7470 -47.8120 43° Northeast 518 596 27,000  Level FlightAware
08:11PM -25.6840 -47.7460 43° Northeast 518 596 27,000  Level FlightAware
08:12PM -25.5770 -47.6460 40° Northeast 515 593 27,000  Level FlightAware
08:12PM -25.4850 -47.5880 30° Northeast 515 593 27,000  Level FlightAware
08:13PM -25.4010 -47.5350 30° Northeast 516 594 27,000  Level FlightAware
08:14PM -25.3210 -47.4840 30° Northeast 518 596 27,000  Level FlightAware
08:14PM -25.2320 -47.4270 30° Northeast 519 597 27,000  Level FlightAware
08:15PM -25.1390 -47.3680 30° Northeast 520 598 27,000  Level FlightAware
08:16PM -25.0560 -47.3150 30° Northeast 524 603 27,000 -420 Level FlightAware
08:17PM -24.9590 -47.2540 30° Northeast 520 598 26,400 -900 Descending FlightAware
08:17PM -24.8690 -47.1970 30° Northeast 526 605 25,700 -1,260 Descending FlightAware
08:18PM -24.7560 -47.1250 30° Northeast 526 605 24,400 -1,680 Descending FlightAware
08:19PM -24.6600 -47.0650 30° Northeast 490 564 22,900 -2,100 Descending FlightAware
08:20PM -24.5790 -47.0150 29° Northeast 482 555 21,400 -2,220 Descending FlightAware
08:20PM -24.5070 -46.9690 30° Northeast 475 547 20,000 -1,980 Descending FlightAware
08:21PM -24.4270 -46.9120 33° Northeast 464 534 18,700 -1,560 Descending FlightAware
08:22PM -24.3590 -46.8630 33° Northeast 436 502 17,800 -1,260 Descending FlightAware
08:22PM -24.2850 -46.8100 33° Northeast 361 415 16,900 -1,320 Descending FlightAware
08:23PM -24.2550 -46.7690 51° Northeast 375 432 16,200 -1,440 Descending FlightAware
08:24PM -24.2380 -46.7060 74° East 370 426 15,400 -1,080 Descending FlightAware
08:24PM -24.2180 -46.6310 74° East 350 403 14,800 -1,080 Descending FlightAware
08:25PM -24.1990 -46.5580 74° East 340 391 13,900 -1,380 Descending FlightAware
08:26PM -24.1820 -46.4990 72° East 333 383 13,000 -1,320 Descending FlightAware
08:26PM -24.1560 -46.4600 54° Northeast 316 364 12,500 -1,080 Descending FlightAware
08:26PM -24.1410 -46.4520 26° Northeast 303 349 12,300 -1,020 Descending FlightAware
08:27PM -24.0920 -46.4580 354° North 285 328 11,700 -1,020 Descending FlightAware
08:28PM -24.0320 -46.4790 342° North 287 330 10,900 -1,020 Descending FlightAware
08:28PM -23.9790 -46.4980 342° North 290 334 10,200 -720 Descending FlightAware
08:29PM -23.9310 -46.5140 343° North 294 338 10,000 -180 Descending FlightAware
08:30PM -23.8850 -46.5340 338° Northwest 286 329 10,000  Level FlightAware
08:30PM -23.8570 -46.5620 318° Northwest 280 322 10,000 -240 Level FlightAware
08:31PM -23.8300 -46.5880 319° Northwest 280 322 9,800 -1,140 Descending FlightAware
08:31PM -23.8010 -46.6160 319° Northwest 286 329 8,900 -1,800 Descending FlightAware
08:31PM -23.7860 -46.6310 318° Northwest 287 330 8,500 -1,080 Descending FlightAware
08:32PM -23.7600 -46.6560 319° Northwest 286 329 8,200 -660 Descending FlightAware
08:32PM -23.7360 -46.6800 318° Northwest 271 312 8,000 -540 Descending FlightAware
08:32PM -23.7270 -46.6890 318° Northwest 264 304 7,900 -600 Descending FlightAware
08:33PM -23.6990 -46.7160 319° Northwest 254 292 7,600 -540 Descending FlightAware
08:33PM -23.6760 -46.7390 318° Northwest 253 291 7,400 -480 Descending FlightAware
08:34PM -23.6530 -46.7620 318° Northwest 255 293 7,200 -540 Descending FlightAware
08:34PM -23.6350 -46.7790 319° Northwest 257 296 7,000 -660 Descending FlightAware
08:35PM -23.6080 -46.8050 319° Northwest 256 295 6,700 -780 Descending FlightAware
08:35PM -23.5860 -46.8270 317° Northwest 253 291 6,300 -900 Descending FlightAware
08:35PM -23.5610 -46.8520 317° Northwest 249 287 5,900 -840 Descending FlightAware
08:36PM -23.5410 -46.8720 317° Northwest 242 278 5,600 -600 Descending FlightAware
08:36PM -23.5190 -46.8930 319° Northwest 230 265 5,400 -480 Descending FlightAware
08:37PM -23.4920 -46.9190 319° Northwest 211 243 5,200 -480 Descending FlightAware
08:37PM -23.4810 -46.9220 346° North 208 239 5,100 -180 Descending FlightAware
08:37PM -23.4580 -46.9090 27° Northeast 192 221 5,100  Level FlightAware
08:38PM -23.4430 -46.8940 43° Northeast 185 213 5,100 -180 Level FlightAware
08:38PM -23.4370 -46.8800 65° Northeast 178 205 5,000 -300 Descending FlightAware
08:39PM -23.4290 -46.8560 70° East 176 203 4,900 -240 Descending FlightAware
08:39PM -23.4220 -46.8320 72° East 171 197 4,800 -120 Descending FlightAware
08:40PM -23.4210 -46.8090 87° East 165 190 4,800  Level FlightAware
08:40PM -23.4260 -46.7970 114° Southeast 149 171 4,800  Level FlightAware
08:40PM -23.4330 -46.7910 142° Southeast 143 165 4,800  Level FlightAware
08:41PM -23.4470 -46.7810 147° Southeast 128 147 4,800  Level FlightAware
08:41PM -23.4590 -46.7720 145° Southeast 128 147 4,800  Level FlightAware
08:41PM -23.4710 -46.7640 149° Southeast 128 147 4,800  Level FlightAware
08:42PM -23.4860 -46.7540 149° Southeast 128 147 4,800  Level FlightAware
08:42PM -23.5000 -46.7440 147° Southeast 129 148 4,800 -240 Level FlightAware
08:43PM -23.5140 -46.7340 147° Southeast 127 146 4,600 -540 Descending FlightAware
08:43PM -23.5280 -46.7250 149° Southeast 128 147 4,300 -660 Descending FlightAware
08:44PM -23.5420 -46.7150 147° Southeast 125 144 4,000 -720 Descending FlightAware
08:44PM -23.5550 -46.7060 148° Southeast 124 143 3,700 -660 Descending FlightAware
08:45PM -23.5690 -46.6970 149° Southeast 122 140 3,400 -660 Descending FlightAware
08:45PM -23.5820 -46.6870 145° Southeast 126 145 3,100 -660 Descending FlightAware
08:46PM -23.5960 -46.6770 147° Southeast 125 144 2,800 -720 Descending FlightAware
08:46PM -23.6030 -46.6730 152° Southeast 127 146 2,600 -480 Descending FlightAware
08:46PM -23.6220 -46.6600 148° Southeast 127 146 2,400 -300 Descending FlightAware
08:49PM -23.6267 -46.6554 138° Southeast  Level Estimated
08:50PM -23.6267 -46.6554 114° Southeast  Level Estimated
08:51PM -23.6267 -46.6554 114° Southeast  Level Estimated
08:52PM -23.6267 -46.6554 114° Southeast  Level Estimated
08:53PM -23.6267 -46.6554 114° Southeast  Level Estimated